Latest Weather Observations for Yarram Airport

IDV60801

Issued at 4:35 pm EST Thursday 28 August 2014 (issued every 30 minutes, with the page automatically refreshed every 10 minutes)

About weather observations | Map of weather stations | Latest weather observations for VIC | Other Formats
Station Details ID: 085151 Name: YARRAM AIRPORT Lat: -38.56 Lon: 146.75 Height: 17.9 m
Data from the previous 72 hours. | See also: Recent months at Yarram Airport
Date/Time
EST
Temp
°C
App
Temp
°C
Dew
Point
Rel
Hum
%
Delta-T
°C
Wind Press
QNH
hPa
Press
MSL
hPa
Rain
since 9 am
mm
Dir
 
Spd
km/h
Gust
km/h
Spd
kts
Gust
kts
28/04:30pm 13.8 10.9 9.8 77 2.0 E 15 20 8 11 1027.3 1027.3 0.0
28/04:00pm 14.8 11.8 10.6 76 2.2 E 17 24 9 13 1027.2 1027.2 0.0
28/03:30pm 15.6 12.2 10.6 72 2.6 E 19 26 10 14 1026.9 1027.0 0.0
28/03:00pm 16.1 12.9 11.1 72 2.7 E 19 26 10 14 1026.9 1027.0 0.0
28/02:30pm 16.8 13.6 11.9 73 2.7 E 20 28 11 15 1026.9 1027.0 0.0
28/02:00pm 16.9 13.8 12.2 74 2.6 E 20 26 11 14 1026.9 1027.0 0.0
28/01:30pm 17.1 14.1 12.0 72 2.8 E 19 24 10 13 1027.2 1027.2 0.0
28/01:00pm 17.2 14.8 12.5 74 2.6 E 17 22 9 12 1027.5 1027.5 0.0
28/12:30pm 17.1 14.7 12.8 76 2.4 E 17 24 9 13 1027.9 1027.9 0.0
28/12:00pm 17.4 15.2 10.8 65 3.5 ENE 13 17 7 9 1028.4 1028.4 0.0
28/11:30am 17.1 15.1 10.2 64 3.7 ENE 11 17 6 9 1028.8 1028.8 0.0
28/11:00am 16.2 13.7 9.6 65 3.4 ENE 13 17 7 9 1029.1 1029.1 0.0
28/10:30am 15.5 13.7 10.7 73 2.5 ENE 11 17 6 9 1029.4 1029.4 0.0
28/10:00am 14.6 13.2 12.1 85 1.3 ENE 11 15 6 8 1029.6 1029.6 0.0
28/09:30am 12.5 11.8 12.0 97 0.3 ENE 7 11 4 6 1029.8 1029.8 0.0
28/09:00am 10.7 10.9 10.7 100 0.0 CALM 0 0 0 0 1029.9 1029.9 0.0
28/08:30am 7.7 7.2 7.7 100 0.0 NNW 0 0 0 0 1029.9 1029.9 0.0
28/08:00am 4.5 3.3 4.5 100 0.0 CALM 0 0 0 0 1029.9 1029.9 0.0
28/07:30am 1.8 -1.2 1.8 100 0.0 NNE 7 9 4 5 1029.7 1029.7 0.0
28/07:00am 0.6 -2.4 0.6 100 0.0 N 6 7 3 4 1029.6 1029.6 0.0
28/06:30am 0.4 -1.5 0.4 100 0.0 CALM 0 0 0 0 1029.5 1029.5 0.0
28/06:00am 0.8 -1.1 0.8 100 0.0 W 0 0 0 0 1029.3 1029.3 0.0
28/05:30am 1.1 -0.7 1.1 100 0.0 CALM 0 0 0 0 1029.0 1029.0 0.0
28/05:00am 0.9 -0.9 0.9 100 0.0 CALM 0 0 0 0 1028.9 1028.9 0.0
28/04:30am 1.1 -0.7 1.1 100 0.0 CALM 0 0 0 0 1028.9 1028.9 0.0
28/04:00am 1.1 -0.7 1.1 100 0.0 CALM 0 0 0 0 1029.0 1029.0 0.0
28/03:30am 1.2 -0.6 1.2 100 0.0 CALM 0 0 0 0 1028.9 1028.9 0.0
28/03:00am 1.3 -0.5 1.3 100 0.0 CALM 0 0 0 0 1028.8 1028.8 0.0
28/02:30am 2.0 0.3 2.0 100 0.0 CALM 0 0 0 0 1028.9 1028.9 0.0
28/02:00am 1.5 -0.3 1.5 100 0.0 CALM 0 0 0 0 1029.0 1029.0 0.0
28/01:30am 2.0 0.3 2.0 100 0.0 CALM 0 0 0 0 1029.1 1029.1 0.0
28/01:00am 2.6 1.0 2.6 100 0.0 CALM 0 0 0 0 1029.2 1029.2 0.0
28/12:30am 3.3 1.9 3.3 100 0.0 CALM 0 0 0 0 1029.3 1029.3 0.0
28/12:00am 3.4 2.0 3.4 100 0.0 SW 0 0 0 0 1029.4 1029.4 0.0
 
Date/Time
EST
Temp
°C
App
Temp
°C
Dew
Point
Rel
Hum
%
Delta-T
°C
Wind Press
QNH
hPa
Press
MSL
hPa
Rain
since 9 am
mm
Dir
 
Spd
km/h
Gust
km/h
Spd
kts
Gust
kts
27/11:30pm 4.7 2.2 4.7 100 0.0 SW 7 9 4 5 1029.5 1029.5 0.0
27/11:00pm 3.4 2.0 3.3 99 0.0 CALM 0 0 0 0 1029.4 1029.4 0.0
27/10:30pm 5.9 3.6 5.9 100 0.0 NNE 7 11 4 6 1029.2 1029.2 0.0
27/10:00pm 6.9 4.1 6.9 100 0.0 NE 11 13 6 7 1029.3 1029.3 0.0
27/09:30pm 5.3 2.1 5.2 99 0.0 NNE 11 13 6 7 1029.2 1029.2 0.0
27/09:00pm 5.2 1.9 4.5 95 0.3 NE 11 13 6 7 1029.1 1029.1 0.0
27/08:30pm 8.0 5.6 7.1 94 0.4 NNE 9 11 5 6 1029.2 1029.2 0.0
27/08:00pm 8.2 5.6 7.6 96 0.3 NNE 11 11 6 6 1028.9 1028.9 0.0
27/07:30pm 8.6 5.9 7.4 92 0.6 NNE 11 13 6 7 1028.8 1028.8 0.0
27/07:00pm 10.5 8.2 8.9 90 0.8 NE 11 15 6 8 1028.5 1028.5 0.0
27/06:30pm 10.5 7.3 8.6 88 0.9 NE 15 17 8 9 1028.4 1028.4 0.0
27/06:00pm 11.2 8.2 7.7 79 1.7 NE 13 15 7 8 1028.2 1028.2 0.0
27/05:30pm 12.7 9.6 9.0 78 1.9 ENE 15 19 8 10 1027.9 1027.9 0.0
27/05:00pm 14.2 10.6 8.4 68 2.9 ENE 17 26 9 14 1027.8 1027.8 0.0
27/04:30pm 15.3 11.3 8.3 63 3.5 E 19 24 10 13 1027.6 1027.6 0.0
27/04:00pm 16.4 12.7 8.1 58 4.2 ENE 17 24 9 13 1027.4 1027.4 0.0
27/03:30pm 17.2 14.3 9.6 61 4.0 ENE 15 22 8 12 1027.4 1027.4 0.0
27/03:00pm 17.7 14.4 9.6 59 4.2 E 17 24 9 13 1027.3 1027.3 0.0
27/02:30pm 18.1 14.9 8.4 53 5.0 ENE 15 24 8 13 1027.2 1027.2 0.0
27/02:00pm 18.4 15.0 7.5 49 5.5 NNE 15 20 8 11 1027.2 1027.2 0.0
27/01:30pm 18.2 14.9 8.2 52 5.1 NNE 15 26 8 14 1027.4 1027.4 0.0
27/01:00pm 17.9 14.6 8.2 53 4.9 NE 15 20 8 11 1027.5 1027.5 0.0
27/12:30pm 17.5 13.5 9.2 58 4.3 NE 20 26 11 14 1027.8 1027.8 0.0
27/12:00pm 17.5 13.4 8.6 56 4.6 NNE 20 30 11 16 1028.0 1028.0 0.0
27/11:30am 16.9 12.9 9.1 60 4.0 NNE 20 28 11 15 1028.4 1028.4 0.0
27/11:00am 16.0 12.7 9.7 66 3.3 NE 17 24 9 13 1028.7 1028.7 0.0
27/10:30am 15.4 12.3 10.2 71 2.7 ENE 17 24 9 13 1028.8 1028.8 0.0
27/10:00am 14.8 12.4 10.2 74 2.4 NE 13 19 7 10 1029.0 1029.0 0.0
27/09:30am 13.9 10.5 10.7 81 1.7 NE 19 26 10 14 1028.8 1028.8 0.0
27/09:00am 12.7 9.6 10.4 86 1.2 NE 17 22 9 12 1028.8 1028.8 0.0
27/08:30am 11.1 8.3 9.9 92 0.6 NE 15 22 8 12 1028.6 1028.6 0.0
27/08:00am 10.0 8.0 10.0 100 0.0 NE 11 15 6 8 1028.6 1028.6 0.0
27/07:30am 7.9 6.1 7.9 100 0.0 NNE 7 11 4 6 1028.3 1028.3 0.0
27/07:00am 7.7 4.7 7.7 100 0.0 NE 13 17 7 9 1028.0 1028.0 0.0
27/06:30am 6.8 2.8 6.8 100 0.0 ENE 17 20 9 11 1027.6 1027.6 0.0
27/06:00am 6.5 3.6 6.5 100 0.0 E 11 13 6 7 1027.6 1027.6 0.0
27/05:30am 6.4 3.9 6.4 100 0.0 ENE 9 11 5 6 1027.4 1027.4 0.0
27/05:00am 7.1 4.7 7.1 100 0.0 NE 9 11 5 6 1027.3 1027.3 0.0
27/04:30am 7.2 4.5 7.2 100 0.0 NE 11 13 6 7 1026.9 1027.0 0.0
27/04:00am 7.2 4.8 7.2 100 0.0 NE 9 9 5 5 1027.0 1027.1 0.0
27/03:30am 7.2 4.8 7.2 100 0.0 NE 9 11 5 6 1027.0 1027.1 0.0
27/03:00am 7.5 5.2 7.5 100 0.0 NE 9 11 5 6 1027.2 1027.2 0.0
27/02:30am 6.7 4.6 6.7 100 0.0 NE 7 9 4 5 1027.3 1027.3 0.0
27/02:00am 8.3 6.2 8.3 100 0.0 NE 9 11 5 6 1027.4 1027.4 0.0
27/01:30am 9.0 7.5 9.0 100 0.0 ENE 7 9 4 5 1027.5 1027.5 0.0
27/01:00am 8.6 5.8 8.6 100 0.0 NE 13 17 7 9 1027.2 1027.2 0.0
27/12:30am 9.2 6.6 9.2 100 0.0 NE 13 17 7 9 1027.5 1027.5 0.0
27/12:00am 8.4 5.9 8.4 100 0.0 NE 11 13 6 7 1027.8 1027.8 0.0
 
Date/Time
EST
Temp
°C
App
Temp
°C
Dew
Point
Rel
Hum
%
Delta-T
°C
Wind Press
QNH
hPa
Press
MSL
hPa
Rain
since 9 am
mm
Dir
 
Spd
km/h
Gust
km/h
Spd
kts
Gust
kts
26/11:30pm 8.0 5.1 8.0 100 0.0 NE 13 15 7 8 1028.0 1028.0 0.0
26/11:00pm 5.2 2.0 5.2 100 0.0 NE 11 13 6 7 1028.3 1028.3 0.0
26/10:30pm 5.3 2.9 5.3 100 0.0 NE 7 9 4 5 1028.6 1028.6 0.0
26/10:00pm 6.3 4.1 6.3 100 0.0 ENE 7 7 4 4 1028.9 1028.9 0.0
26/09:30pm 7.7 6.0 7.7 100 0.0 ENE 6 7 3 4 1028.8 1028.8 0.0
26/09:00pm 8.0 6.4 8.0 100 0.0 NE 6 7 3 4 1028.8 1028.8 0.0
26/08:30pm 8.0 6.2 8.0 100 0.0 NNE 7 9 4 5 1028.8 1028.8 0.0
26/08:00pm 9.0 7.1 9.0 100 0.0 NNE 9 11 5 6 1028.7 1028.7 0.0
26/07:30pm 8.5 6.1 8.5 100 0.0 NNE 11 13 6 7 1028.5 1028.5 0.0
26/07:00pm 8.2 6.0 7.8 97 0.2 N 9 11 5 6 1028.5 1028.5 0.0
26/06:30pm 10.2 8.9 9.9 98 0.2 ENE 7 9 4 5 1028.3 1028.3 0.0
26/06:00pm 11.1 10.0 10.5 96 0.3 ENE 7 9 4 5 1028.2 1028.2 0.0
26/05:30pm 12.1 10.0 11.0 93 0.6 E 13 19 7 10 1028.2 1028.2 0.0
26/05:00pm 13.5 11.2 11.6 88 1.0 E 15 22 8 12 1027.9 1027.9 0.0
26/04:30pm 14.5 11.3 11.1 80 1.8 E 19 26 10 14 1027.6 1027.6 0.0
26/04:00pm 15.3 11.8 10.9 75 2.3 E 20 28 11 15 1027.5 1027.5 0.0
26/03:30pm 15.8 12.5 11.6 76 2.3 E 20 30 11 16 1027.4 1027.4 0.0
26/03:00pm 16.5 12.9 11.9 74 2.5 E 22 32 12 17 1027.3 1027.3 0.0
26/02:30pm 16.9 13.4 12.2 74 2.6 E 22 32 12 17 1027.3 1027.3 0.0
26/02:00pm 16.7 13.9 12.5 76 2.3 E 19 28 10 15 1027.4 1027.4 0.0
26/01:30pm 17.5 14.6 12.4 72 2.8 ENE 19 26 10 14 1027.6 1027.6 0.0
26/01:00pm 17.6 14.5 12.3 71 2.9 NE 20 28 11 15 1027.7 1027.7 0.0
26/12:30pm 16.4 12.7 11.6 73 2.6 NE 22 32 12 17 1028.1 1028.1 0.0
26/12:00pm 17.1 14.6 13.4 79 2.1 ENE 19 32 10 17 1028.5 1028.5 0.0
26/11:30am 16.6 14.2 13.9 84 1.5 ENE 19 26 10 14 1028.8 1028.8 0.0
26/11:00am 14.7 12.7 12.6 87 1.1 ENE 15 20 8 11 1029.2 1029.2 0.0
26/10:30am 14.6 14.0 14.6 100 0.0 ENE 11 20 6 11 1029.5 1029.5 0.0
26/10:00am 13.2 12.5 13.2 100 0.0 E 9 13 5 7 1029.7 1029.7 0.0
26/09:30am 11.9 11.7 11.9 100 0.0 E 4 7 2 4 1029.9 1029.9 0.0
26/09:00am 11.3 10.6 11.3 100 0.0 ENE 6 7 3 4 1029.9 1029.9 0.4
26/08:30am 11.2 11.6 11.2 100 0.0 CALM 0 0 0 0 1029.8 1029.8 0.4
26/08:00am 10.4 9.8 10.4 100 0.0 NE 4 7 2 4 1029.8 1029.8 0.4
26/07:30am 9.6 9.5 9.6 100 0.0 CALM 0 0 0 0 1029.5 1029.5 0.4
26/07:00am 9.7 9.7 9.7 100 0.0 CALM 0 0 0 0 1029.3 1029.3 0.2
26/06:30am 10.2 10.3 10.2 100 0.0 CALM 0 0 0 0 1029.1 1029.1 0.2
26/06:00am 10.3 10.4 10.3 100 0.0 CALM 0 0 0 0 1029.0 1029.0 0.2
26/05:30am 10.4 10.6 10.4 100 0.0 CALM 0 0 0 0 1028.7 1028.7 0.2
26/05:00am 10.8 11.1 10.8 100 0.0 CALM 0 0 0 0 1028.5 1028.5 0.2
26/04:30am 11.0 11.3 11.0 100 0.0 CALM 0 0 0 0 1028.5 1028.5 0.2
26/04:00am 11.1 11.5 11.1 100 0.0 CALM 0 0 0 0 1028.4 1028.4 0.2
26/03:30am 11.0 11.3 11.0 100 0.0 CALM 0 0 0 0 1028.5 1028.5 0.2
26/03:00am 10.4 10.6 10.4 100 0.0 CALM 0 0 0 0 1028.5 1028.5 0.2
26/02:30am 10.0 10.1 10.0 100 0.0 CALM 0 0 0 0 1028.6 1028.6 0.2
26/02:00am 8.7 8.4 8.7 100 0.0 CALM 0 0 0 0 1028.7 1028.7 0.2
26/01:30am 7.9 6.3 7.9 100 0.0 NNW 6 7 3 4 1028.9 1028.9 0.0
26/01:00am 8.3 7.9 8.3 100 0.0 CALM 0 0 0 0 1029.2 1029.2 0.0
26/12:30am 8.9 8.6 8.6 98 0.1 CALM 0 0 0 0 1029.2 1029.2 0.0
26/12:00am 10.7 10.9 10.7 100 0.0 CALM 0 0 0 0 1029.1 1029.1 0.0
 
Date/Time
EST
Temp
°C
App
Temp
°C
Dew
Point
Rel
Hum
%
Delta-T
°C
Wind Press
QNH
hPa
Press
MSL
hPa
Rain
since 9 am
mm
Dir
 
Spd
km/h
Gust
km/h
Spd
kts
Gust
kts
25/11:30pm 11.0 11.3 10.8 99 0.1 CALM 0 0 0 0 1029.1 1029.1 0.0
25/11:00pm 11.1 11.4 10.9 99 0.1 CALM 0 0 0 0 1029.0 1029.0 0.0
25/10:30pm 11.4 11.8 11.1 98 0.2 CALM 0 0 0 0 1029.0 1029.0 0.0
25/10:00pm 11.8 12.3 11.6 99 0.1 CALM 0 6 0 3 1029.0 1029.0 0.0
25/09:30pm 11.7 11.0 11.5 99 0.1 WNW 6 9 3 5 1029.1 1029.1 0.0
25/09:00pm 11.6 10.0 11.4 99 0.1 W 11 15 6 8 1029.1 1029.1 0.0
25/08:30pm 11.4 10.5 11.2 99 0.1 W 7 9 4 5 1029.1 1029.1 0.0
25/08:00pm 11.4 10.5 11.2 99 0.1 W 7 9 4 5 1029.1 1029.1 0.0
25/07:30pm 11.2 9.9 11.2 100 0.0 W 9 11 5 6 1028.8 1028.8 0.0
25/07:00pm 10.5 8.9 10.3 99 0.1 W 9 9 5 5 1028.7 1028.7 0.0
25/06:30pm 11.4 10.6 10.9 97 0.3 SSW 6 7 3 4 1028.5 1028.5 0.0
25/06:00pm 11.4 10.0 10.9 97 0.3 S 9 11 5 6 1028.2 1028.2 0.0
25/05:30pm 11.6 10.4 10.3 92 0.7 S 7 7 4 4 1027.9 1027.9 0.0
25/05:00pm 12.6 11.2 10.8 89 0.9 SSE 9 11 5 6 1027.6 1027.6 0.0

Other Formats:

Comma delimited format used in spreadsheet applications
http://www.bom.gov.au/fwo/IDV60801/IDV60801.95890.axf

JavaScript Object Notation format (JSON) in row-major order
http://www.bom.gov.au/fwo/IDV60801/IDV60801.95890.json